Airport Name : Stephenville

Other Name : Stephenville

ICAO : CYJT

IATA : YJT

FAA :

Latitude : 48.544167

Longitude : -58.549999

Country : Canada

Local Date and Time : 18 Jun 2024 23:38

 

TAF (Terminal Aerodrome Forecast)

TAF CYJT 182340Z 1900/1924 24005KT P6SM FEW008 PROB30 1902/1907 BKN008 FM190700 VRB03KT P6SM SCT012 FM191100 24005KT P6SM FEW020 BKN060 FM191400 26010KT P6SM -SHRA SCT012 BKN040 FM192200 24006KT P6SM SCT030 RMK NXT FCST BY 190600Z

 

METAR (METeorological Aerodrome Report)

CYJT 190200Z 00000KT 15SM BKN150 13/12 A3015 RMK AS7 SLP211

CYJT 190100Z VRB03KT 15SM FEW010 BKN160 13/12 A3015 RMK SF1AS6 SLP211

CYJT 190000Z 27004KT 15SM FEW180 SCT240 13/12 A3015 RMK AS2CI1 SLP211

CYJT 182300Z 25003KT 210V020 15SM FEW180 BKN240 13/11 A3014 RMK AS1CI4 SLP209